Time,TemperatureF,DewpointF,PressureIn,WindDirection,WindDirectionDegrees,WindSpeedMPH,WindSpeedGustMPH,Humidity,HourlyPrecipIn,Conditions,Clouds,dailyrainin,SoftwareType,DateUTC
2013-06-18 00:00:00,61.2,55.7,29.78,NE,48,12.0,12.0,82,0.05,,,0.00,Wunderground v.1.15,2013-06-18 07:00:00,
2013-06-18 00:01:00,61.2,55.7,29.78,NE,51,8.0,9.0,82,0.05,,,0.00,Wunderground v.1.15,2013-06-18 07:01:00,
2013-06-18 00:04:00,61.2,55.7,29.79,NE,48,5.0,9.0,82,0.04,,,0.00,Wunderground v.1.15,2013-06-18 07:04:00,
2013-06-18 00:06:00,61.2,55.7,29.79,NE,54,4.0,9.0,82,0.00,,,0.00,Wunderground v.1.15,2013-06-18 07:06:00,
2013-06-18 00:07:00,61.2,55.7,29.79,NE,55,3.0,9.0,82,0.00,,,0.00,Wunderground v.1.15,2013-06-18 07:07:00,
2013-06-18 00:08:00,61.3,55.8,29.79,ENE,57,4.0,9.0,82,0.00,,,0.00,Wunderground v.1.15,2013-06-18 07:08:00,
2013-06-18 00:10:00,61.2,55.3,29.80,ENE,59,3.0,9.0,81,0.00,,,0.00,Wunderground v.1.15,2013-06-18 07:10:00,
2013-06-18 00:12:00,61.2,55.7,29.80,ENE,59,3.0,5.0,82,0.00,,,0.00,Wunderground v.1.15,2013-06-18 07:12:00,
2013-06-18 00:13:00,61.3,55.8,29.80,ENE,59,3.0,5.0,82,0.00,,,0.00,Wunderground v.1.15,2013-06-18 07:13:00,
2013-06-18 00:17:00,61.2,55.7,29.80,ENE,60,3.0,5.0,82,0.00,,,0.00,Wunderground v.1.15,2013-06-18 07:17:00,
2013-06-18 00:18:00,61.1,55.6,29.80,ENE,61,3.0,5.0,82,0.00,,,0.00,Wunderground v.1.15,2013-06-18 07:18:00,
2013-06-18 00:19:00,61.2,56.0,29.80,ENE,61,2.0,5.0,83,0.00,,,0.00,Wunderground v.1.15,2013-06-18 07:19:00,
2013-06-18 00:23:00,61.1,55.9,29.80,ENE,63,3.0,4.0,83,0.00,,,0.00,Wunderground v.1.15,2013-06-18 07:23:00,
2013-06-18 00:25:00,60.9,55.7,29.80,ENE,64,4.0,4.0,83,0.00,,,0.00,Wunderground v.1.15,2013-06-18 07:25:00,
2013-06-18 00:26:00,60.9,56.0,29.80,ENE,64,3.0,4.0,84,0.00,,,0.00,Wunderground v.1.15,2013-06-18 07:26:00,
2013-06-18 00:27:00,60.8,55.9,29.80,ENE,64,2.0,4.0,84,0.00,,,0.00,Wunderground v.1.15,2013-06-18 07:27:00,
2013-06-18 00:28:00,60.8,55.9,29.80,ENE,64,2.0,4.0,84,0.00,,,0.00,Wunderground v.1.15,2013-06-18 07:28:00,
2013-06-18 00:32:00,60.6,55.7,29.81,ENE,64,3.0,3.0,84,0.00,,,0.00,Wunderground v.1.15,2013-06-18 07:32:00,
2013-06-18 00:33:00,60.6,56.1,29.81,ENE,64,2.0,3.0,85,0.00,,,0.00,Wunderground v.1.15,2013-06-18 07:33:00,
2013-06-18 00:34:00,60.6,56.1,29.81,ENE,64,2.0,3.0,85,0.00,,,0.00,Wunderground v.1.15,2013-06-18 07:34:00,
2013-06-18 00:35:00,60.6,56.1,29.81,ENE,64,1.0,3.0,85,0.00,,,0.00,Wunderground v.1.15,2013-06-18 07:35:00,
2013-06-18 00:41:00,60.6,56.4,29.80,ENE,64,4.0,4.0,86,0.00,,,0.00,Wunderground v.1.15,2013-06-18 07:41:00,
2013-06-18 00:43:00,60.6,56.4,29.79,ENE,57,4.0,5.0,86,0.00,,,0.00,Wunderground v.1.15,2013-06-18 07:43:00,
2013-06-18 00:44:00,60.5,56.3,29.79,NE,55,4.0,5.0,86,0.00,,,0.00,Wunderground v.1.15,2013-06-18 07:44:00,
2013-06-18 00:49:00,60.3,56.4,29.79,NE,38,5.0,6.0,87,0.00,,,0.00,Wunderground v.1.15,2013-06-18 07:49:00,
2013-06-18 00:50:00,60.3,56.4,29.79,NE,38,4.0,6.0,87,0.00,,,0.00,Wunderground v.1.15,2013-06-18 07:50:00,
2013-06-18 00:53:00,60.2,56.3,29.79,NE,38,4.0,5.0,87,0.00,,,0.00,Wunderground v.1.15,2013-06-18 07:53:00,
2013-06-18 00:55:00,60.2,56.3,29.79,NE,38,3.0,5.0,87,0.00,,,0.00,Wunderground v.1.15,2013-06-18 07:55:00,
2013-06-18 00:56:00,60.2,56.3,29.79,NE,38,3.0,5.0,87,0.00,,,0.00,Wunderground v.1.15,2013-06-18 07:56:00,
2013-06-18 00:58:00,60.2,56.3,29.80,NE,38,3.0,5.0,87,0.00,,,0.00,Wunderground v.1.15,2013-06-18 07:58:00,
2013-06-18 01:01:00,60.3,56.1,29.81,NE,38,2.0,3.0,86,0.00,,,0.00,Wunderground v.1.15,2013-06-18 08:01:00,
2013-06-18 01:02:00,60.4,56.2,29.81,NE,38,1.0,3.0,86,0.00,,,0.00,Wunderground v.1.15,2013-06-18 08:02:00,
2013-06-18 01:04:00,60.5,56.3,29.82,NE,38,1.0,3.0,86,0.00,,,0.00,Wunderground v.1.15,2013-06-18 08:04:00,
2013-06-18 01:07:00,60.6,56.4,29.82,NE,38,0.0,3.0,86,0.00,,,0.00,Wunderground v.1.15,2013-06-18 08:07:00,
2013-06-18 01:08:00,60.6,56.4,29.82,NE,38,0.0,3.0,86,0.00,,,0.00,Wunderground v.1.15,2013-06-18 08:08:00,
2013-06-18 01:11:00,60.7,56.5,29.83,NE,38,1.0,1.0,86,0.00,,,0.00,Wunderground v.1.15,2013-06-18 08:11:00,
2013-06-18 01:13:00,60.7,56.5,29.83,NE,49,2.0,2.0,86,0.00,,,0.00,Wunderground v.1.15,2013-06-18 08:13:00,
2013-06-18 01:14:00,60.6,56.4,29.83,ENE,59,2.0,2.0,86,0.00,,,0.00,Wunderground v.1.15,2013-06-18 08:14:00,
2013-06-18 01:17:00,60.5,56.6,29.83,ENE,63,0.0,3.0,87,0.00,,,0.00,Wunderground v.1.15,2013-06-18 08:17:00,
2013-06-18 01:18:00,60.4,56.5,29.82,ENE,63,0.0,3.0,87,0.00,,,0.00,Wunderground v.1.15,2013-06-18 08:18:00,
2013-06-18 01:19:00,60.4,56.2,29.82,ENE,63,0.0,3.0,86,0.00,,,0.00,Wunderground v.1.15,2013-06-18 08:19:00,
2013-06-18 01:20:00,60.3,56.1,29.82,ENE,63,0.0,3.0,86,0.00,,,0.00,Wunderground v.1.15,2013-06-18 08:20:00,
2013-06-18 01:23:00,60.2,56.3,29.82,ENE,63,0.0,2.0,87,0.00,,,0.00,Wunderground v.1.15,2013-06-18 08:23:00,
2013-06-18 01:25:00,60.2,56.0,29.82,ENE,63,1.0,2.0,86,0.00,,,0.00,Wunderground v.1.15,2013-06-18 08:25:00,
2013-06-18 01:26:00,60.2,56.0,29.82,ENE,63,1.0,2.0,86,0.00,,,0.01,Wunderground v.1.15,2013-06-18 08:26:00,
2013-06-18 01:28:00,60.2,56.0,29.82,ENE,63,3.0,3.0,86,0.00,,,0.01,Wunderground v.1.15,2013-06-18 08:28:00,
2013-06-18 01:29:00,60.2,56.0,29.83,ENE,63,2.0,3.0,86,0.00,,,0.01,Wunderground v.1.15,2013-06-18 08:29:00,
2013-06-18 01:33:00,60.4,56.2,29.83,ENE,63,1.0,2.0,86,0.10,,,0.02,Wunderground v.1.15,2013-06-18 08:33:00,
2013-06-18 01:35:00,60.4,56.5,29.83,ENE,63,2.0,2.0,87,0.10,,,0.02,Wunderground v.1.15,2013-06-18 08:35:00,
2013-06-18 01:37:00,60.4,56.5,29.82,ENE,58,5.0,5.0,87,0.17,,,0.03,Wunderground v.1.15,2013-06-18 08:37:00,
2013-06-18 01:39:00,60.3,56.4,29.82,NNE,31,5.0,6.0,87,0.15,,,0.03,Wunderground v.1.15,2013-06-18 08:39:00,
2013-06-18 01:40:00,60.3,56.4,29.82,NNE,28,3.0,6.0,87,0.12,,,0.03,Wunderground v.1.15,2013-06-18 08:40:00,
2013-06-18 01:41:00,60.3,56.4,29.82,NNE,27,4.0,4.0,87,0.10,,,0.03,Wunderground v.1.15,2013-06-18 08:41:00,
2013-06-18 01:43:00,60.2,56.0,29.81,NNE,26,5.0,5.0,86,0.08,,,0.03,Wunderground v.1.15,2013-06-18 08:43:00,
2013-06-18 01:44:00,60.1,55.9,29.81,NNE,26,1.0,5.0,86,0.07,,,0.03,Wunderground v.1.15,2013-06-18 08:44:00,
2013-06-18 01:45:00,60.1,55.9,29.81,NNE,26,2.0,5.0,86,0.06,,,0.04,Wunderground v.1.15,2013-06-18 08:45:00,
2013-06-18 01:49:00,60.0,54.8,29.82,NNE,26,1.0,5.0,83,0.06,,,0.04,Wunderground v.1.15,2013-06-18 08:49:00,
2013-06-18 01:50:00,60.1,54.9,29.82,NNE,26,1.0,5.0,83,0.06,,,0.04,Wunderground v.1.15,2013-06-18 08:50:00,
2013-06-18 01:51:00,60.2,55.3,29.82,NNE,26,4.0,4.0,84,0.06,,,0.04,Wunderground v.1.15,2013-06-18 08:51:00,
2013-06-18 01:56:00,60.3,55.4,29.83,NNE,26,3.0,4.0,84,0.05,,,0.04,Wunderground v.1.15,2013-06-18 08:56:00,
2013-06-18 02:01:00,60.1,55.6,29.81,NNE,26,1.0,2.0,85,0.04,,,0.04,Wunderground v.1.15,2013-06-18 09:01:00,
2013-06-18 02:06:00,60.0,55.5,29.82,NNE,26,0.0,3.0,85,0.04,,,0.05,Wunderground v.1.15,2013-06-18 09:06:00,
2013-06-18 02:11:00,59.9,55.1,29.80,NNE,26,6.0,6.0,84,0.04,,,0.05,Wunderground v.1.15,2013-06-18 09:11:00,
2013-06-18 02:16:00,59.9,55.4,29.80,NNE,26,3.0,7.0,85,0.04,,,0.05,Wunderground v.1.15,2013-06-18 09:16:00,
2013-06-18 02:21:00,59.8,55.3,29.81,NNE,26,2.0,4.0,85,0.00,,,0.05,Wunderground v.1.15,2013-06-18 09:21:00,
2013-06-18 02:26:00,59.8,55.3,29.82,NNE,26,3.0,4.0,85,0.00,,,0.05,Wunderground v.1.15,2013-06-18 09:26:00,
2013-06-18 02:31:00,60.0,55.2,29.82,NNE,26,2.0,2.0,84,0.00,,,0.05,Wunderground v.1.15,2013-06-18 09:31:00,
2013-06-18 02:36:00,60.0,55.5,29.80,NNE,26,4.0,6.0,85,0.00,,,0.05,Wunderground v.1.15,2013-06-18 09:36:00,
2013-06-18 02:41:00,59.9,55.4,29.82,NNE,26,0.0,2.0,85,0.00,,,0.06,Wunderground v.1.15,2013-06-18 09:41:00,
2013-06-18 02:46:00,59.7,55.5,29.83,NNE,26,0.0,2.0,86,0.00,,,0.06,Wunderground v.1.15,2013-06-18 09:46:00,
2013-06-18 02:51:00,59.7,55.5,29.83,NNE,26,0.0,0.0,86,0.00,,,0.06,Wunderground v.1.15,2013-06-18 09:51:00,
2013-06-18 02:56:00,59.7,55.5,29.82,NNE,26,4.0,4.0,86,0.00,,,0.06,Wunderground v.1.15,2013-06-18 09:56:00,
2013-06-18 03:01:00,59.8,55.9,29.82,NNE,26,1.0,2.0,87,0.00,,,0.07,Wunderground v.1.15,2013-06-18 10:01:00,
2013-06-18 03:06:00,59.9,56.3,29.83,NNE,26,0.0,2.0,88,0.00,,,0.07,Wunderground v.1.15,2013-06-18 10:06:00,
2013-06-18 03:11:00,59.7,56.1,29.83,NNE,26,0.0,0.0,88,0.00,,,0.07,Wunderground v.1.15,2013-06-18 10:11:00,
2013-06-18 03:16:00,59.5,55.9,29.83,NNE,26,0.0,0.0,88,0.04,,,0.08,Wunderground v.1.15,2013-06-18 10:16:00,
2013-06-18 03:21:00,59.3,55.7,29.83,NNE,26,0.0,0.0,88,0.08,,,0.09,Wunderground v.1.15,2013-06-18 10:21:00,
2013-06-18 03:27:00,59.2,56.0,29.83,NNE,26,3.0,3.0,89,0.08,,,0.09,Wunderground v.1.15,2013-06-18 10:27:00,
2013-06-18 03:32:00,59.0,55.8,29.83,NNE,26,0.0,1.0,89,0.24,,,0.11,Wunderground v.1.15,2013-06-18 10:32:00,
2013-06-18 03:37:00,58.8,55.6,29.83,NNE,26,0.0,1.0,89,0.09,,,0.11,Wunderground v.1.15,2013-06-18 10:37:00,
2013-06-18 03:42:00,58.9,55.7,29.83,NNE,26,3.0,4.0,89,0.28,,,0.13,Wunderground v.1.15,2013-06-18 10:42:00,
2013-06-18 03:47:00,58.9,55.7,29.82,NNE,26,1.0,4.0,89,0.40,,,0.15,Wunderground v.1.15,2013-06-18 10:47:00,
2013-06-18 03:50:00,58.8,55.6,29.82,NNE,26,0.0,4.0,89,0.22,,,0.16,Wunderground v.1.15,2013-06-18 10:50:00,
2013-06-18 03:55:00,58.6,55.1,29.83,NNE,26,3.0,4.0,88,0.08,,,0.16,Wunderground v.1.15,2013-06-18 10:55:00,
2013-06-18 04:00:00,58.5,54.6,29.83,NNE,26,0.0,4.0,87,0.05,,,0.16,Wunderground v.1.15,2013-06-18 11:00:00,
2013-06-18 04:05:00,58.6,54.7,29.83,NNE,26,0.0,1.0,87,0.00,,,0.16,Wunderground v.1.15,2013-06-18 11:05:00,
2013-06-18 04:10:00,58.5,54.6,29.83,NNE,26,0.0,1.0,87,0.00,,,0.16,Wunderground v.1.15,2013-06-18 11:10:00,
2013-06-18 04:15:00,58.4,54.5,29.82,NNE,26,0.0,0.0,87,0.00,,,0.16,Wunderground v.1.15,2013-06-18 11:15:00,
2013-06-18 04:20:00,58.3,54.1,29.83,NNE,26,0.0,3.0,86,0.00,,,0.16,Wunderground v.1.15,2013-06-18 11:20:00,
2013-06-18 04:25:00,58.3,54.4,29.82,NNE,26,0.0,1.0,87,0.00,,,0.16,Wunderground v.1.15,2013-06-18 11:25:00,
2013-06-18 04:30:00,58.2,54.3,29.82,NNE,26,0.0,1.0,87,0.00,,,0.16,Wunderground v.1.15,2013-06-18 11:30:00,
2013-06-18 04:35:00,58.1,54.2,29.83,NNE,26,1.0,2.0,87,0.00,,,0.16,Wunderground v.1.15,2013-06-18 11:35:00,
2013-06-18 04:40:00,58.1,53.9,29.84,NNE,26,0.0,2.0,86,0.00,,,0.16,Wunderground v.1.15,2013-06-18 11:40:00,
2013-06-18 04:45:00,58.2,54.0,29.84,NNE,26,2.0,2.0,86,0.00,,,0.16,Wunderground v.1.15,2013-06-18 11:45:00,
2013-06-18 04:50:00,58.1,53.9,29.84,NNE,26,0.0,3.0,86,0.00,,,0.16,Wunderground v.1.15,2013-06-18 11:50:00,
2013-06-18 04:55:00,58.0,54.2,29.84,NNE,26,0.0,2.0,87,0.00,,,0.16,Wunderground v.1.15,2013-06-18 11:55:00,
2013-06-18 05:00:00,57.8,53.6,29.84,NNE,26,0.0,2.0,86,0.00,,,0.16,Wunderground v.1.15,2013-06-18 12:00:00,
2013-06-18 05:05:00,57.7,53.2,29.84,NNE,26,0.0,1.0,85,0.00,,,0.16,Wunderground v.1.15,2013-06-18 12:05:00,
2013-06-18 05:10:00,57.6,53.1,29.84,NNE,26,0.0,1.0,85,0.00,,,0.16,Wunderground v.1.15,2013-06-18 12:10:00,
2013-06-18 05:15:00,57.7,53.2,29.84,NNE,26,0.0,0.0,85,0.00,,,0.16,Wunderground v.1.15,2013-06-18 12:15:00,
2013-06-18 05:20:00,57.7,53.5,29.84,NNE,26,4.0,5.0,86,0.00,,,0.17,Wunderground v.1.15,2013-06-18 12:20:00,
2013-06-18 05:25:00,57.6,53.4,29.84,NNE,26,1.0,2.0,86,0.00,,,0.17,Wunderground v.1.15,2013-06-18 12:25:00,
2013-06-18 05:30:00,57.5,53.0,29.84,NNE,31,1.0,2.0,85,0.00,,,0.17,Wunderground v.1.15,2013-06-18 12:30:00,
2013-06-18 05:35:00,57.8,53.6,29.84,NNE,31,0.0,2.0,86,0.00,,,0.17,Wunderground v.1.15,2013-06-18 12:35:00,
2013-06-18 05:40:00,57.8,53.3,29.84,NNE,31,3.0,3.0,85,0.00,,,0.17,Wunderground v.1.15,2013-06-18 12:40:00,
2013-06-18 05:45:00,57.8,53.3,29.84,NNE,29,2.0,4.0,85,0.00,,,0.17,Wunderground v.1.15,2013-06-18 12:45:00,
2013-06-18 05:50:00,57.9,53.7,29.84,NNE,29,3.0,4.0,86,0.00,,,0.17,Wunderground v.1.15,2013-06-18 12:50:00,
2013-06-18 05:55:00,57.7,53.9,29.84,NNE,29,3.0,4.0,87,0.00,,,0.17,Wunderground v.1.15,2013-06-18 12:55:00,
2013-06-18 06:00:00,57.5,53.3,29.84,NNE,29,3.0,4.0,86,0.00,,,0.17,Wunderground v.1.15,2013-06-18 13:00:00,
2013-06-18 06:05:00,57.6,53.4,29.84,NNE,29,4.0,4.0,86,0.00,,,0.17,Wunderground v.1.15,2013-06-18 13:05:00,
2013-06-18 06:10:00,57.8,54.0,29.84,NNE,29,3.0,4.0,87,0.00,,,0.17,Wunderground v.1.15,2013-06-18 13:10:00,
2013-06-18 06:15:00,57.7,53.9,29.85,NNE,27,1.0,3.0,87,0.00,,,0.17,Wunderground v.1.15,2013-06-18 13:15:00,
2013-06-18 06:20:00,57.6,53.4,29.85,NNE,24,2.0,3.0,86,0.00,,,0.17,Wunderground v.1.15,2013-06-18 13:20:00,
2013-06-18 06:25:00,57.7,53.5,29.85,NNE,24,4.0,5.0,86,0.00,,,0.17,Wunderground v.1.15,2013-06-18 13:25:00,
2013-06-18 06:30:00,57.8,53.6,29.85,East,88,5.0,8.0,86,0.00,,,0.17,Wunderground v.1.15,2013-06-18 13:30:00,
2013-06-18 06:35:00,57.7,53.5,29.85,East,88,3.0,6.0,86,0.00,,,0.17,Wunderground v.1.15,2013-06-18 13:35:00,
2013-06-18 06:40:00,57.5,53.7,29.85,East,100,5.0,6.0,87,0.00,,,0.17,Wunderground v.1.15,2013-06-18 13:40:00,
2013-06-18 06:45:00,57.4,53.6,29.85,East,100,2.0,5.0,87,0.00,,,0.17,Wunderground v.1.15,2013-06-18 13:45:00,
2013-06-18 06:50:00,57.3,53.5,29.85,East,100,2.0,5.0,87,0.00,,,0.17,Wunderground v.1.15,2013-06-18 13:50:00,
2013-06-18 06:55:00,57.2,53.4,29.85,East,100,5.0,6.0,87,0.00,,,0.17,Wunderground v.1.15,2013-06-18 13:55:00,
2013-06-18 06:58:00,57.3,53.5,29.85,East,100,5.0,6.0,87,0.00,,,0.17,Wunderground v.1.15,2013-06-18 13:58:00,
2013-06-18 07:04:00,57.2,53.0,29.85,ESE,109,4.0,6.0,86,0.00,,,0.17,Wunderground v.1.15,2013-06-18 14:04:00,
2013-06-18 07:09:00,57.4,52.9,29.85,ESE,109,4.0,6.0,85,0.00,,,0.17,Wunderground v.1.15,2013-06-18 14:09:00,
2013-06-18 07:14:00,57.7,53.2,29.85,ESE,109,2.0,5.0,85,0.00,,,0.17,Wunderground v.1.15,2013-06-18 14:14:00,
2013-06-18 07:19:00,57.8,53.3,29.85,ESE,109,2.0,5.0,85,0.00,,,0.17,Wunderground v.1.15,2013-06-18 14:19:00,
2013-06-18 07:24:00,57.9,53.4,29.85,ESE,109,2.0,5.0,85,0.00,,,0.17,Wunderground v.1.15,2013-06-18 14:24:00,
2013-06-18 07:29:00,58.0,53.8,29.85,ESE,109,4.0,6.0,86,0.00,,,0.17,Wunderground v.1.15,2013-06-18 14:29:00,
2013-06-18 07:34:00,58.0,53.8,29.86,ESE,109,4.0,6.0,86,0.00,,,0.17,Wunderground v.1.15,2013-06-18 14:34:00,
2013-06-18 07:39:00,58.1,53.9,29.85,ESE,109,4.0,6.0,86,0.00,,,0.17,Wunderground v.1.15,2013-06-18 14:39:00,
2013-06-18 07:44:00,58.1,53.9,29.86,ESE,109,2.0,5.0,86,0.00,,,0.17,Wunderground v.1.15,2013-06-18 14:44:00,
2013-06-18 07:49:00,58.1,53.6,29.85,ESE,109,2.0,6.0,85,0.00,,,0.17,Wunderground v.1.15,2013-06-18 14:49:00,
2013-06-18 07:54:00,58.1,53.3,29.85,ESE,109,5.0,6.0,84,0.00,,,0.17,Wunderground v.1.15,2013-06-18 14:54:00,
2013-06-18 07:59:00,58.2,53.7,29.85,ESE,107,6.0,6.0,85,0.00,,,0.17,Wunderground v.1.15,2013-06-18 14:59:00,
2013-06-18 08:04:00,58.3,53.8,29.85,ESE,107,4.0,7.0,85,0.00,,,0.17,Wunderground v.1.15,2013-06-18 15:04:00,
2013-06-18 08:09:00,58.4,53.6,29.85,ESE,107,7.0,7.0,84,0.00,,,0.17,Wunderground v.1.15,2013-06-18 15:09:00,
2013-06-18 08:14:00,58.5,53.7,29.85,ESE,111,7.0,9.0,84,0.00,,,0.17,Wunderground v.1.15,2013-06-18 15:14:00,
2013-06-18 08:19:00,58.6,54.1,29.85,ESE,111,4.0,9.0,85,0.00,,,0.17,Wunderground v.1.15,2013-06-18 15:19:00,
2013-06-18 08:24:00,58.6,54.1,29.85,ESE,112,5.0,7.0,85,0.00,,,0.17,Wunderground v.1.15,2013-06-18 15:24:00,
2013-06-18 08:29:00,58.8,54.6,29.85,ESE,113,8.0,8.0,86,0.00,,,0.17,Wunderground v.1.15,2013-06-18 15:29:00,
2013-06-18 08:34:00,58.6,54.4,29.85,ESE,111,4.0,6.0,86,0.00,,,0.17,Wunderground v.1.15,2013-06-18 15:34:00,
2013-06-18 08:39:00,58.8,54.6,29.85,ESE,111,4.0,6.0,86,0.00,,,0.17,Wunderground v.1.15,2013-06-18 15:39:00,
2013-06-18 08:44:00,58.8,54.6,29.85,ESE,111,1.0,4.0,86,0.00,,,0.17,Wunderground v.1.15,2013-06-18 15:44:00,
2013-06-18 08:49:00,58.8,54.3,29.85,ESE,111,5.0,6.0,85,0.00,,,0.17,Wunderground v.1.15,2013-06-18 15:49:00,
2013-06-18 08:54:00,59.1,54.6,29.85,ESE,111,6.0,6.0,85,0.00,,,0.17,Wunderground v.1.15,2013-06-18 15:54:00,
2013-06-18 08:59:00,59.0,53.5,29.85,ESE,111,5.0,7.0,82,0.00,,,0.17,Wunderground v.1.15,2013-06-18 15:59:00,
2013-06-18 09:04:00,59.0,53.8,29.85,ESE,114,4.0,9.0,83,0.00,,,0.17,Wunderground v.1.15,2013-06-18 16:04:00,
2013-06-18 09:09:00,59.2,53.7,29.85,ESE,114,6.0,9.0,82,0.00,,,0.17,Wunderground v.1.15,2013-06-18 16:09:00,
2013-06-18 09:14:00,59.3,53.8,29.85,ESE,115,7.0,8.0,82,0.00,,,0.17,Wunderground v.1.15,2013-06-18 16:14:00,
2013-06-18 09:19:00,59.2,53.7,29.85,ESE,116,9.0,9.0,82,0.00,,,0.17,Wunderground v.1.15,2013-06-18 16:19:00,
2013-06-18 09:24:00,59.1,53.9,29.85,ESE,119,8.0,9.0,83,0.00,,,0.17,Wunderground v.1.15,2013-06-18 16:24:00,
2013-06-18 09:29:00,58.9,53.7,29.85,ESE,119,5.0,9.0,83,0.00,,,0.17,Wunderground v.1.15,2013-06-18 16:29:00,
2013-06-18 09:34:00,58.8,53.6,29.85,ESE,119,5.0,8.0,83,0.00,,,0.17,Wunderground v.1.15,2013-06-18 16:34:00,
2013-06-18 09:39:00,58.6,53.1,29.85,SE,125,5.0,9.0,82,0.00,,,0.17,Wunderground v.1.15,2013-06-18 16:39:00,
2013-06-18 09:44:00,58.5,53.7,29.85,SE,125,4.0,7.0,84,0.00,,,0.17,Wunderground v.1.15,2013-06-18 16:44:00,
2013-06-18 09:49:00,58.2,53.4,29.85,SE,125,6.0,9.0,84,0.00,,,0.17,Wunderground v.1.15,2013-06-18 16:49:00,
2013-06-18 09:54:00,58.2,53.4,29.85,SE,125,6.0,9.0,84,0.00,,,0.17,Wunderground v.1.15,2013-06-18 16:54:00,
2013-06-18 09:59:00,58.2,53.7,29.86,SE,126,4.0,9.0,85,0.00,,,0.17,Wunderground v.1.15,2013-06-18 16:59:00,
2013-06-18 10:04:00,58.3,53.8,29.86,SE,126,5.0,6.0,85,0.00,,,0.17,Wunderground v.1.15,2013-06-18 17:04:00,
2013-06-18 10:09:00,58.1,53.6,29.86,SE,126,5.0,7.0,85,0.00,,,0.17,Wunderground v.1.15,2013-06-18 17:09:00,
2013-06-18 10:14:00,58.1,53.6,29.85,SE,126,2.0,5.0,85,0.00,,,0.18,Wunderground v.1.15,2013-06-18 17:14:00,
2013-06-18 10:19:00,58.1,53.9,29.85,SE,124,5.0,7.0,86,0.00,,,0.18,Wunderground v.1.15,2013-06-18 17:19:00,
2013-06-18 10:24:00,58.3,54.1,29.85,SE,124,2.0,5.0,86,0.00,,,0.18,Wunderground v.1.15,2013-06-18 17:24:00,
2013-06-18 10:29:00,58.3,54.4,29.85,SE,124,4.0,6.0,87,0.00,,,0.18,Wunderground v.1.15,2013-06-18 17:29:00,
2013-06-18 10:34:00,58.4,54.5,29.85,SE,124,2.0,4.0,87,0.00,,,0.18,Wunderground v.1.15,2013-06-18 17:34:00,
2013-06-18 10:39:00,58.4,54.5,29.85,SE,124,8.0,8.0,87,0.00,,,0.18,Wunderground v.1.15,2013-06-18 17:39:00,
2013-06-18 10:44:00,58.1,54.2,29.85,SE,126,6.0,8.0,87,0.00,,,0.19,Wunderground v.1.15,2013-06-18 17:44:00,
2013-06-18 10:49:00,58.1,54.6,29.86,SE,127,7.0,8.0,88,0.00,,,0.19,Wunderground v.1.15,2013-06-18 17:49:00,
2013-06-18 10:54:00,57.9,54.4,29.86,SE,146,7.0,8.0,88,0.07,,,0.20,Wunderground v.1.15,2013-06-18 17:54:00,
2013-06-18 10:59:00,57.5,53.3,29.86,SSE,164,5.0,9.0,86,0.07,,,0.20,Wunderground v.1.15,2013-06-18 17:59:00,
2013-06-18 11:04:00,57.5,53.3,29.86,South,175,4.0,10.0,86,0.04,,,0.20,Wunderground v.1.15,2013-06-18 18:04:00,
2013-06-18 11:09:00,57.4,53.2,29.86,South,175,5.0,10.0,86,0.04,,,0.21,Wunderground v.1.15,2013-06-18 18:09:00,
2013-06-18 11:14:00,57.3,53.1,29.86,South,175,1.0,5.0,86,0.04,,,0.21,Wunderground v.1.15,2013-06-18 18:14:00,
2013-06-18 11:19:00,57.4,53.2,29.86,South,175,1.0,5.0,86,0.04,,,0.21,Wunderground v.1.15,2013-06-18 18:19:00,
2013-06-18 11:24:00,57.3,53.1,29.85,South,175,0.0,1.0,86,0.00,,,0.22,Wunderground v.1.15,2013-06-18 18:24:00,
2013-06-18 11:29:00,57.2,53.0,29.85,South,174,1.0,4.0,86,0.00,,,0.22,Wunderground v.1.15,2013-06-18 18:29:00,
2013-06-18 11:34:00,57.0,52.9,29.86,South,174,0.0,6.0,86,0.10,,,0.23,Wunderground v.1.15,2013-06-18 18:34:00,
2013-06-18 11:39:00,57.0,52.9,29.86,South,174,5.0,6.0,86,0.06,,,0.23,Wunderground v.1.15,2013-06-18 18:39:00,
2013-06-18 11:44:00,56.9,52.8,29.86,South,174,6.0,6.0,86,0.04,,,0.23,Wunderground v.1.15,2013-06-18 18:44:00,
2013-06-18 11:49:00,56.7,52.6,29.86,South,174,5.0,7.0,86,0.00,,,0.23,Wunderground v.1.15,2013-06-18 18:49:00,
2013-06-18 11:54:00,56.6,52.1,29.86,South,174,5.0,5.0,85,0.00,,,0.23,Wunderground v.1.15,2013-06-18 18:54:00,
2013-06-18 11:59:00,56.6,52.1,29.87,South,171,4.0,7.0,85,0.00,,,0.23,Wunderground v.1.15,2013-06-18 18:59:00,
2013-06-18 12:04:00,56.5,52.4,29.86,South,171,7.0,7.0,86,0.00,,,0.24,Wunderground v.1.15,2013-06-18 19:04:00,
2013-06-18 12:09:00,56.3,52.5,29.87,SSE,167,9.0,9.0,87,0.13,,,0.25,Wunderground v.1.15,2013-06-18 19:09:00,
2013-06-18 12:14:00,56.0,52.2,29.87,SE,144,7.0,9.0,87,0.22,,,0.27,Wunderground v.1.15,2013-06-18 19:14:00,
2013-06-18 12:19:00,55.8,52.3,29.88,SE,146,10.0,11.0,88,0.11,,,0.28,Wunderground v.1.15,2013-06-18 19:19:00,
2013-06-18 12:24:00,55.5,52.0,29.87,SE,146,9.0,9.0,88,0.23,,,0.30,Wunderground v.1.15,2013-06-18 19:24:00,
2013-06-18 12:29:00,55.3,52.1,29.87,SE,140,11.0,11.0,89,0.15,,,0.31,Wunderground v.1.15,2013-06-18 19:29:00,
2013-06-18 12:34:00,55.1,51.9,29.87,ESE,123,8.0,13.0,89,0.07,,,0.32,Wunderground v.1.15,2013-06-18 19:34:00,
2013-06-18 12:39:00,55.2,52.3,29.87,ESE,123,9.0,13.0,90,0.07,,,0.32,Wunderground v.1.15,2013-06-18 19:39:00,
2013-06-18 12:44:00,55.1,52.2,29.87,ESE,121,9.0,12.0,90,0.08,,,0.33,Wunderground v.1.15,2013-06-18 19:44:00,
2013-06-18 12:49:00,55.0,52.1,29.87,ESE,114,8.0,12.0,90,0.17,,,0.35,Wunderground v.1.15,2013-06-18 19:49:00,
2013-06-18 12:54:00,54.7,51.8,29.86,ESE,113,11.0,12.0,90,0.10,,,0.35,Wunderground v.1.15,2013-06-18 19:54:00,
2013-06-18 12:59:00,54.8,51.9,29.87,ESE,111,9.0,12.0,90,0.08,,,0.36,Wunderground v.1.15,2013-06-18 19:59:00,
2013-06-18 13:04:00,54.5,51.6,29.87,ESE,117,9.0,11.0,90,0.09,,,0.37,Wunderground v.1.15,2013-06-18 20:04:00,
2013-06-18 13:09:00,54.4,51.5,29.88,ESE,119,6.0,13.0,90,0.09,,,0.37,Wunderground v.1.15,2013-06-18 20:09:00,
2013-06-18 13:14:00,54.6,51.7,29.87,ESE,113,5.0,9.0,90,0.05,,,0.37,Wunderground v.1.15,2013-06-18 20:14:00,
2013-06-18 13:19:00,54.6,51.7,29.87,East,89,7.0,13.0,90,0.04,,,0.37,Wunderground v.1.15,2013-06-18 20:19:00,
2013-06-18 13:24:00,54.8,52.2,29.87,East,89,4.0,6.0,91,0.00,,,0.37,Wunderground v.1.15,2013-06-18 20:24:00,
2013-06-18 13:29:00,54.8,51.9,29.87,East,96,7.0,11.0,90,0.00,,,0.37,Wunderground v.1.15,2013-06-18 20:29:00,
2013-06-18 13:34:00,55.0,52.4,29.87,East,89,10.0,11.0,91,0.00,,,0.38,Wunderground v.1.15,2013-06-18 20:34:00,
2013-06-18 13:39:00,54.8,52.2,29.87,East,93,7.0,13.0,91,0.00,,,0.38,Wunderground v.1.15,2013-06-18 20:39:00,
2013-06-18 13:44:00,55.1,52.5,29.87,East,92,4.0,11.0,91,0.00,,,0.38,Wunderground v.1.15,2013-06-18 20:44:00,
2013-06-18 13:49:00,55.3,53.0,29.87,East,93,5.0,12.0,92,0.00,,,0.38,Wunderground v.1.15,2013-06-18 20:49:00,
2013-06-18 13:54:00,55.3,53.0,29.87,East,94,9.0,11.0,92,0.00,,,0.38,Wunderground v.1.15,2013-06-18 20:54:00,
2013-06-18 13:59:00,55.5,53.2,29.87,ESE,107,11.0,11.0,92,0.00,,,0.38,Wunderground v.1.15,2013-06-18 20:59:00,
2013-06-18 14:04:00,55.5,53.2,29.87,East,98,8.0,14.0,92,0.00,,,0.38,Wunderground v.1.15,2013-06-18 21:04:00,
2013-06-18 14:09:00,55.8,53.5,29.87,East,98,8.0,14.0,92,0.00,,,0.38,Wunderground v.1.15,2013-06-18 21:09:00,
2013-06-18 14:14:00,55.9,53.6,29.87,ESE,113,11.0,14.0,92,0.00,,,0.38,Wunderground v.1.15,2013-06-18 21:14:00,
2013-06-18 14:19:00,55.8,53.2,29.87,ESE,111,9.0,14.0,91,0.00,,,0.38,Wunderground v.1.15,2013-06-18 21:19:00,
2013-06-18 14:24:00,55.8,53.2,29.87,ESE,121,9.0,13.0,91,0.00,,,0.38,Wunderground v.1.15,2013-06-18 21:24:00,
2013-06-18 14:29:00,55.9,53.3,29.87,ESE,119,8.0,14.0,91,0.00,,,0.38,Wunderground v.1.15,2013-06-18 21:29:00,
2013-06-18 14:34:00,55.9,53.3,29.87,ESE,105,4.0,13.0,91,0.00,,,0.38,Wunderground v.1.15,2013-06-18 21:34:00,
2013-06-18 14:39:00,55.9,53.0,29.87,ESE,120,12.0,13.0,90,0.00,,,0.38,Wunderground v.1.15,2013-06-18 21:39:00,
2013-06-18 14:44:00,55.9,52.7,29.87,ESE,120,8.0,13.0,89,0.00,,,0.38,Wunderground v.1.15,2013-06-18 21:44:00,
2013-06-18 14:49:00,55.9,52.7,29.87,ESE,123,12.0,13.0,89,0.00,,,0.38,Wunderground v.1.15,2013-06-18 21:49:00,
2013-06-18 14:54:00,55.9,52.7,29.87,SE,125,7.0,13.0,89,0.00,,,0.38,Wunderground v.1.15,2013-06-18 21:54:00,
2013-06-18 14:59:00,56.3,53.4,29.87,ESE,121,6.0,13.0,90,0.00,,,0.38,Wunderground v.1.15,2013-06-18 21:59:00,
2013-06-18 15:04:00,56.0,52.8,29.87,ESE,111,8.0,12.0,89,0.00,,,0.38,Wunderground v.1.15,2013-06-18 22:04:00,
2013-06-18 15:09:00,55.9,53.0,29.86,East,100,7.0,12.0,90,0.00,,,0.38,Wunderground v.1.15,2013-06-18 22:09:00,
2013-06-18 15:14:00,56.0,52.8,29.86,East,100,4.0,8.0,89,0.00,,,0.38,Wunderground v.1.15,2013-06-18 22:14:00,
2013-06-18 15:19:00,56.1,53.2,29.86,East,97,11.0,11.0,90,0.00,,,0.38,Wunderground v.1.15,2013-06-18 22:19:00,
2013-06-18 15:24:00,56.2,53.3,29.87,East,94,6.0,8.0,90,0.00,,,0.38,Wunderground v.1.15,2013-06-18 22:24:00,
2013-06-18 15:29:00,56.2,53.0,29.86,East,94,4.0,9.0,89,0.00,,,0.38,Wunderground v.1.15,2013-06-18 22:29:00,
2013-06-18 15:34:00,56.4,53.2,29.87,East,94,7.0,9.0,89,0.00,,,0.38,Wunderground v.1.15,2013-06-18 22:34:00,
2013-06-18 15:39:00,56.3,53.1,29.87,East,101,5.0,11.0,89,0.00,,,0.38,Wunderground v.1.15,2013-06-18 22:39:00,
2013-06-18 15:44:00,56.4,53.2,29.86,East,101,6.0,8.0,89,0.00,,,0.38,Wunderground v.1.15,2013-06-18 22:44:00,
2013-06-18 15:49:00,56.6,53.4,29.86,East,101,7.0,9.0,89,0.00,,,0.38,Wunderground v.1.15,2013-06-18 22:49:00,
2013-06-18 15:54:00,56.7,53.5,29.86,East,98,6.0,8.0,89,0.00,,,0.38,Wunderground v.1.15,2013-06-18 22:54:00,
2013-06-18 15:59:00,56.8,53.6,29.86,East,101,8.0,9.0,89,0.00,,,0.38,Wunderground v.1.15,2013-06-18 22:59:00,
2013-06-18 16:04:00,56.7,53.2,29.85,East,98,8.0,11.0,88,0.00,,,0.38,Wunderground v.1.15,2013-06-18 23:04:00,
2013-06-18 16:09:00,56.8,53.0,29.85,ESE,104,11.0,11.0,87,0.00,,,0.38,Wunderground v.1.15,2013-06-18 23:09:00,
2013-06-18 16:14:00,57.0,53.5,29.85,ESE,105,6.0,8.0,88,0.00,,,0.38,Wunderground v.1.15,2013-06-18 23:14:00,
2013-06-18 16:19:00,57.1,53.3,29.85,ESE,105,4.0,8.0,87,0.00,,,0.38,Wunderground v.1.15,2013-06-18 23:19:00,
2013-06-18 16:24:00,57.2,53.4,29.85,East,100,6.0,8.0,87,0.00,,,0.38,Wunderground v.1.15,2013-06-18 23:24:00,
2013-06-18 16:29:00,57.1,53.0,29.85,East,100,4.0,8.0,86,0.00,,,0.38,Wunderground v.1.15,2013-06-18 23:29:00,
2013-06-18 16:34:00,57.1,53.3,29.85,East,100,4.0,6.0,87,0.00,,,0.38,Wunderground v.1.15,2013-06-18 23:34:00,
2013-06-18 16:39:00,57.1,53.3,29.85,East,100,6.0,7.0,87,0.00,,,0.38,Wunderground v.1.15,2013-06-18 23:39:00,
2013-06-18 16:44:00,57.0,53.2,29.85,East,100,2.0,5.0,87,0.00,,,0.38,Wunderground v.1.15,2013-06-18 23:44:00,
2013-06-18 16:49:00,57.0,53.2,29.85,East,100,4.0,6.0,87,0.00,,,0.38,Wunderground v.1.15,2013-06-18 23:49:00,
2013-06-18 16:54:00,57.0,53.2,29.84,East,100,4.0,6.0,87,0.00,,,0.38,Wunderground v.1.15,2013-06-18 23:54:00,
2013-06-18 16:59:00,56.9,53.1,29.84,East,100,1.0,6.0,87,0.00,,,0.38,Wunderground v.1.15,2013-06-18 23:59:00,
2013-06-18 17:04:00,57.1,53.3,29.85,East,100,2.0,5.0,87,0.00,,,0.38,Wunderground v.1.15,2013-06-19 00:04:00,
2013-06-18 17:09:00,56.9,52.8,29.84,East,100,2.0,6.0,86,0.00,,,0.38,Wunderground v.1.15,2013-06-19 00:09:00,
2013-06-18 17:14:00,57.1,53.3,29.84,East,100,6.0,6.0,87,0.00,,,0.38,Wunderground v.1.15,2013-06-19 00:14:00,
2013-06-18 17:19:00,57.2,53.4,29.84,East,100,5.0,7.0,87,0.00,,,0.38,Wunderground v.1.15,2013-06-19 00:19:00,
2013-06-18 17:24:00,57.1,53.0,29.84,East,100,4.0,5.0,86,0.00,,,0.38,Wunderground v.1.15,2013-06-19 00:24:00,
2013-06-18 17:29:00,57.1,53.0,29.83,East,100,2.0,5.0,86,0.00,,,0.38,Wunderground v.1.15,2013-06-19 00:29:00,
2013-06-18 17:34:00,57.5,53.0,29.83,East,100,1.0,2.0,85,0.00,,,0.38,Wunderground v.1.15,2013-06-19 00:34:00,
2013-06-18 17:39:00,57.7,52.9,29.83,East,100,0.0,2.0,84,0.00,,,0.38,Wunderground v.1.15,2013-06-19 00:39:00,
2013-06-18 17:44:00,58.1,53.3,29.83,East,100,1.0,4.0,84,0.00,,,0.38,Wunderground v.1.15,2013-06-19 00:44:00,
2013-06-18 17:49:00,58.1,53.3,29.83,East,100,5.0,7.0,84,0.00,,,0.38,Wunderground v.1.15,2013-06-19 00:49:00,
2013-06-18 17:54:00,58.3,53.2,29.82,East,100,0.0,5.0,83,0.00,,,0.38,Wunderground v.1.15,2013-06-19 00:54:00,
2013-06-18 17:59:00,58.3,53.2,29.82,East,100,4.0,5.0,83,0.00,,,0.38,Wunderground v.1.15,2013-06-19 00:59:00,
2013-06-18 18:04:00,58.3,53.2,29.82,East,100,0.0,6.0,83,0.00,,,0.38,Wunderground v.1.15,2013-06-19 01:04:00,
2013-06-18 18:09:00,58.4,52.9,29.82,East,100,4.0,6.0,82,0.00,,,0.38,Wunderground v.1.15,2013-06-19 01:09:00,
2013-06-18 18:14:00,58.4,52.9,29.82,East,100,0.0,2.0,82,0.00,,,0.38,Wunderground v.1.15,2013-06-19 01:14:00,
2013-06-18 18:19:00,58.5,53.0,29.82,East,100,4.0,5.0,82,0.00,,,0.38,Wunderground v.1.15,2013-06-19 01:19:00,
2013-06-18 18:24:00,58.4,53.3,29.81,East,100,1.0,4.0,83,0.00,,,0.38,Wunderground v.1.15,2013-06-19 01:24:00,
2013-06-18 18:29:00,58.4,53.3,29.81,East,100,4.0,5.0,83,0.00,,,0.38,Wunderground v.1.15,2013-06-19 01:29:00,
2013-06-18 18:34:00,58.4,53.3,29.82,East,100,1.0,4.0,83,0.00,,,0.38,Wunderground v.1.15,2013-06-19 01:34:00,
2013-06-18 18:39:00,58.2,53.1,29.82,East,100,1.0,4.0,83,0.00,,,0.38,Wunderground v.1.15,2013-06-19 01:39:00,
2013-06-18 18:44:00,58.2,53.1,29.82,East,100,0.0,1.0,83,0.00,,,0.38,Wunderground v.1.15,2013-06-19 01:44:00,
2013-06-18 18:49:00,58.3,53.2,29.82,East,100,2.0,4.0,83,0.00,,,0.38,Wunderground v.1.15,2013-06-19 01:49:00,
2013-06-18 18:54:00,58.3,53.2,29.82,East,100,1.0,2.0,83,0.00,,,0.38,Wunderground v.1.15,2013-06-19 01:54:00,
2013-06-18 18:59:00,58.3,53.2,29.82,East,100,1.0,5.0,83,0.00,,,0.38,Wunderground v.1.15,2013-06-19 01:59:00,
2013-06-18 19:04:00,58.2,53.1,29.82,East,100,4.0,5.0,83,0.00,,,0.38,Wunderground v.1.15,2013-06-19 02:04:00,
2013-06-18 19:09:00,58.2,53.1,29.82,East,100,4.0,6.0,83,0.00,,,0.38,Wunderground v.1.15,2013-06-19 02:09:00,
2013-06-18 19:14:00,58.0,52.9,29.82,ESE,109,4.0,6.0,83,0.00,,,0.38,Wunderground v.1.15,2013-06-19 02:14:00,
2013-06-18 19:19:00,58.0,52.9,29.82,ESE,110,4.0,6.0,83,0.00,,,0.38,Wunderground v.1.15,2013-06-19 02:19:00,
2013-06-18 19:24:00,58.0,52.9,29.82,ESE,111,0.0,5.0,83,0.00,,,0.38,Wunderground v.1.15,2013-06-19 02:24:00,
2013-06-18 19:29:00,58.0,52.9,29.82,ESE,111,4.0,5.0,83,0.00,,,0.38,Wunderground v.1.15,2013-06-19 02:29:00,
2013-06-18 19:34:00,58.0,52.9,29.82,ESE,111,1.0,5.0,83,0.00,,,0.38,Wunderground v.1.15,2013-06-19 02:34:00,
2013-06-18 19:39:00,58.0,53.2,29.82,ESE,111,4.0,5.0,84,0.00,,,0.38,Wunderground v.1.15,2013-06-19 02:39:00,
2013-06-18 19:44:00,58.0,53.2,29.82,ESE,111,2.0,4.0,84,0.00,,,0.38,Wunderground v.1.15,2013-06-19 02:44:00,
2013-06-18 19:49:00,58.0,53.2,29.82,ESE,111,2.0,4.0,84,0.00,,,0.38,Wunderground v.1.15,2013-06-19 02:49:00,
2013-06-18 19:54:00,57.8,53.0,29.82,ESE,111,1.0,2.0,84,0.00,,,0.38,Wunderground v.1.15,2013-06-19 02:54:00,
2013-06-18 19:59:00,57.8,53.0,29.82,ESE,111,1.0,4.0,84,0.00,,,0.38,Wunderground v.1.15,2013-06-19 02:59:00,
2013-06-18 20:04:00,57.8,53.0,29.82,ESE,111,1.0,2.0,84,0.00,,,0.38,Wunderground v.1.15,2013-06-19 03:04:00,
2013-06-18 20:09:00,57.9,53.4,29.82,ESE,111,5.0,5.0,85,0.00,,,0.38,Wunderground v.1.15,2013-06-19 03:09:00,
2013-06-18 20:14:00,57.9,53.4,29.82,ESE,111,4.0,4.0,85,0.00,,,0.38,Wunderground v.1.15,2013-06-19 03:14:00,
2013-06-18 20:19:00,57.9,53.4,29.82,ESE,113,0.0,4.0,85,0.00,,,0.38,Wunderground v.1.15,2013-06-19 03:19:00,
2013-06-18 20:24:00,57.7,53.2,29.82,ESE,113,2.0,4.0,85,0.00,,,0.38,Wunderground v.1.15,2013-06-19 03:24:00,
2013-06-18 20:29:00,57.6,53.4,29.82,ESE,113,1.0,4.0,86,0.00,,,0.38,Wunderground v.1.15,2013-06-19 03:29:00,
2013-06-18 20:34:00,57.5,53.3,29.82,ESE,113,1.0,4.0,86,0.00,,,0.38,Wunderground v.1.15,2013-06-19 03:34:00,
2013-06-18 20:39:00,57.3,53.1,29.82,ESE,116,2.0,4.0,86,0.00,,,0.38,Wunderground v.1.15,2013-06-19 03:39:00,
2013-06-18 20:44:00,57.2,53.4,29.82,ESE,116,2.0,4.0,87,0.00,,,0.38,Wunderground v.1.15,2013-06-19 03:44:00,
2013-06-18 20:49:00,57.0,53.2,29.82,ESE,116,1.0,4.0,87,0.00,,,0.38,Wunderground v.1.15,2013-06-19 03:49:00,
2013-06-18 20:54:00,57.0,53.5,29.82,ESE,116,1.0,4.0,88,0.00,,,0.38,Wunderground v.1.15,2013-06-19 03:54:00,
2013-06-18 20:59:00,57.0,53.5,29.82,ESE,116,2.0,4.0,88,0.00,,,0.38,Wunderground v.1.15,2013-06-19 03:59:00,
2013-06-18 21:01:00,57.0,53.5,29.82,ESE,116,0.0,4.0,88,0.00,,,0.38,Wunderground v.1.15,2013-06-19 04:01:00,
2013-06-18 21:06:00,57.0,53.8,29.83,ESE,116,4.0,4.0,89,0.00,,,0.38,Wunderground v.1.15,2013-06-19 04:06:00,
2013-06-18 21:11:00,56.9,53.7,29.83,ESE,116,4.0,4.0,89,0.00,,,0.38,Wunderground v.1.15,2013-06-19 04:11:00,
2013-06-18 21:16:00,56.8,53.6,29.82,ESE,116,5.0,6.0,89,0.00,,,0.38,Wunderground v.1.15,2013-06-19 04:16:00,
2013-06-18 21:21:00,56.6,53.4,29.82,ESE,116,4.0,6.0,89,0.00,,,0.38,Wunderground v.1.15,2013-06-19 04:21:00,
2013-06-18 21:26:00,56.5,53.6,29.82,ESE,116,2.0,5.0,90,0.00,,,0.38,Wunderground v.1.15,2013-06-19 04:26:00,
2013-06-18 21:31:00,56.4,53.5,29.82,ESE,116,4.0,6.0,90,0.00,,,0.38,Wunderground v.1.15,2013-06-19 04:31:00,
2013-06-18 21:36:00,56.4,53.2,29.82,ESE,116,2.0,4.0,89,0.00,,,0.38,Wunderground v.1.15,2013-06-19 04:36:00,
2013-06-18 21:41:00,56.3,53.1,29.82,ESE,116,0.0,4.0,89,0.00,,,0.38,Wunderground v.1.15,2013-06-19 04:41:00,
2013-06-18 21:46:00,56.2,53.3,29.82,ESE,116,0.0,2.0,90,0.00,,,0.38,Wunderground v.1.15,2013-06-19 04:46:00,
2013-06-18 21:51:00,56.2,53.3,29.82,ESE,116,0.0,2.0,90,0.00,,,0.38,Wunderground v.1.15,2013-06-19 04:51:00,
2013-06-18 21:56:00,56.0,53.1,29.82,ESE,116,0.0,1.0,90,0.00,,,0.38,Wunderground v.1.15,2013-06-19 04:56:00,
2013-06-18 22:01:00,56.0,53.1,29.82,ESE,116,0.0,1.0,90,0.00,,,0.38,Wunderground v.1.15,2013-06-19 05:01:00,
2013-06-18 22:06:00,55.9,53.0,29.83,ESE,116,0.0,0.0,90,0.00,,,0.38,Wunderground v.1.15,2013-06-19 05:06:00,
2013-06-18 22:11:00,55.8,52.9,29.83,ESE,116,0.0,0.0,90,0.00,,,0.38,Wunderground v.1.15,2013-06-19 05:11:00,
2013-06-18 22:16:00,55.7,53.1,29.83,ESE,116,0.0,0.0,91,0.00,,,0.38,Wunderground v.1.15,2013-06-19 05:16:00,
2013-06-18 22:21:00,55.6,53.0,29.83,ESE,116,1.0,1.0,91,0.00,,,0.38,Wunderground v.1.15,2013-06-19 05:21:00,
2013-06-18 22:26:00,55.5,52.9,29.82,ESE,116,2.0,2.0,91,0.00,,,0.38,Wunderground v.1.15,2013-06-19 05:26:00,
2013-06-18 22:31:00,55.3,52.7,29.82,ESE,116,2.0,4.0,91,0.00,,,0.38,Wunderground v.1.15,2013-06-19 05:31:00,
2013-06-18 22:36:00,55.2,52.6,29.82,ESE,116,1.0,2.0,91,0.00,,,0.38,Wunderground v.1.15,2013-06-19 05:36:00,
2013-06-18 22:41:00,55.1,52.8,29.82,ESE,116,0.0,2.0,92,0.00,,,0.38,Wunderground v.1.15,2013-06-19 05:41:00,
2013-06-18 22:46:00,55.0,52.7,29.81,ESE,116,1.0,2.0,92,0.00,,,0.38,Wunderground v.1.15,2013-06-19 05:46:00,
2013-06-18 22:51:00,54.9,52.6,29.81,ESE,116,1.0,2.0,92,0.00,,,0.38,Wunderground v.1.15,2013-06-19 05:51:00,
2013-06-18 22:52:00,54.8,52.5,29.81,ESE,116,1.0,2.0,92,0.00,,,0.38,Wunderground v.1.15,2013-06-19 05:52:00,
2013-06-18 22:57:00,54.6,52.3,29.81,ESE,116,1.0,2.0,92,0.00,,,0.38,Wunderground v.1.15,2013-06-19 05:57:00,
2013-06-18 23:02:00,54.5,52.2,29.80,ESE,116,1.0,2.0,92,0.00,,,0.38,Wunderground v.1.15,2013-06-19 06:02:00,
2013-06-18 23:07:00,54.4,52.1,29.80,ESE,116,2.0,2.0,92,0.00,,,0.38,Wunderground v.1.15,2013-06-19 06:07:00,
2013-06-18 23:12:00,54.2,51.9,29.80,ESE,116,1.0,2.0,92,0.00,,,0.38,Wunderground v.1.15,2013-06-19 06:12:00,
2013-06-18 23:17:00,54.2,51.9,29.80,ESE,116,1.0,2.0,92,0.00,,,0.38,Wunderground v.1.15,2013-06-19 06:17:00,
2013-06-18 23:22:00,54.1,51.8,29.80,ESE,116,1.0,2.0,92,0.00,,,0.38,Wunderground v.1.15,2013-06-19 06:22:00,
2013-06-18 23:27:00,54.2,52.2,29.80,ESE,116,1.0,2.0,93,0.00,,,0.38,Wunderground v.1.15,2013-06-19 06:27:00,
2013-06-18 23:32:00,54.5,52.5,29.81,ESE,116,0.0,1.0,93,0.00,,,0.38,Wunderground v.1.15,2013-06-19 06:32:00,
2013-06-18 23:37:00,54.7,52.4,29.81,ESE,116,0.0,1.0,92,0.00,,,0.38,Wunderground v.1.15,2013-06-19 06:37:00,
2013-06-18 23:42:00,54.8,52.5,29.81,ESE,116,0.0,0.0,92,0.00,,,0.38,Wunderground v.1.15,2013-06-19 06:42:00,
2013-06-18 23:47:00,54.7,52.4,29.81,ESE,116,0.0,0.0,92,0.00,,,0.38,Wunderground v.1.15,2013-06-19 06:47:00,
2013-06-18 23:52:00,54.6,52.3,29.81,ESE,116,1.0,1.0,92,0.00,,,0.38,Wunderground v.1.15,2013-06-19 06:52:00,
2013-06-18 23:54:00,54.5,52.2,29.81,ESE,116,1.0,1.0,92,0.00,,,0.38,Wunderground v.1.15,2013-06-19 06:54:00,
2013-06-18 23:55:00,54.4,52.1,29.81,ESE,116,0.0,1.0,92,0.00,,,0.38,Wunderground v.1.15,2013-06-19 06:55:00,
2013-06-18 23:57:00,54.3,52.0,29.81,ESE,116,1.0,1.0,92,0.00,,,0.38,Wunderground v.1.15,2013-06-19 06:57:00,